Latest Weather Observations for Cape Bruny AWS

IDT60801

Issued at 6:31 am EDT Saturday 19 October 2019 (issued every 10 minutes, with the page automatically refreshed every 10 minutes)

About weather observations | Map of weather stations | Latest weather observations for TAS | Other Formats
Station Details ID: 094198 Name: CAPE BRUNY (CAPE BRUNY) Lat: -43.49 Lon: 147.14 Height: 59.7 m
Data from the previous 72 hours. | See also: Recent months at Cape Bruny AWS
Date/Time
EDT
Temp
°C
App
Temp
°C
Dew
Point
°C
Rel
Hum
%
Delta-T
°C
Wind Press
QNH
hPa
Press
MSL
hPa
Rain since
9am
mm
Dir  Spd
km/h
Gust
km/h
Spd
kts
Gust
kts
19/06:30am 6.3 2.1 1.6 72 1.9 N 13 17 7 9 1001.0 1001.1 2.6
19/06:00am 6.3 1.7 1.8 73 1.8 N 15 24 8 13 1000.8 1000.9 2.6
19/05:30am 6.6 1.0 1.1 68 2.2 NNW 20 28 11 15 1000.7 1000.8 2.6
19/05:22am 6.8 -0.3 1.3 68 2.2 NW 28 46 15 25 1000.7 1000.8 2.6
19/05:00am 6.5 -1.4 1.0 68 2.2 NW 32 48 17 26 1000.6 1000.7 2.6
19/04:30am 6.8 -2.9 0.7 65 2.4 NW 41 54 22 29 1000.5 1000.6 2.6
19/04:16am 6.6 -0.5 1.5 70 2.1 NW 28 50 15 27 1000.5 1000.6 2.6
19/04:00am 6.2 -1.2 1.7 73 1.8 NW 30 46 16 25 1000.8 1000.9 2.6
19/03:58am 6.3 -1.5 1.6 72 1.9 WNW 32 50 17 27 1000.8 1000.9 2.6
19/03:30am 7.4 -0.5 1.0 64 2.6 NW 32 48 17 26 1000.7 1000.8 2.6
19/03:00am 6.9 -1.9 1.2 67 2.3 NW 37 56 20 30 1000.4 1000.5 2.6
19/02:54am 6.7 -2.2 1.0 67 2.3 WNW 37 56 20 30 1000.5 1000.6 2.6
19/02:30am 6.3 -3.8 1.8 73 1.8 NW 44 59 24 32 1000.3 1000.4 2.6
19/02:00am 6.5 -2.0 1.2 69 2.1 NW 35 56 19 30 1000.6 1000.7 2.6
19/01:30am 7.4 -0.6 1.9 68 2.3 WNW 33 56 18 30 1001.0 1001.1 2.6
19/01:28am 7.1 -0.8 1.0 65 2.4 WNW 32 52 17 28 1000.9 1001.0 2.4
19/01:00am 7.0 -2.2 1.5 68 2.2 WNW 39 54 21 29 1000.9 1001.0 2.4
19/12:30am 6.3 -1.0 2.2 75 1.7 WNW 30 48 16 26 1000.7 1000.8 2.4
19/12:00am 6.5 -1.8 2.4 75 1.7 WNW 35 56 19 30 1000.5 1000.6 2.4
 
Date/Time
EDT
Temp
°C
App
Temp
°C
Dew
Point
°C
Rel
Hum
%
Delta-T
°C
Wind Press
QNH
hPa
Press
MSL
hPa
Rain since
9am
mm
Dir  Spd
km/h
Gust
km/h
Spd
kts
Gust
kts
18/11:59pm 6.4 -1.5 2.3 75 1.7 WNW 33 54 18 29 1000.5 1000.6 2.4
18/11:30pm 6.1 -1.7 2.9 80 1.3 WNW 33 44 18 24 1000.7 1000.8 2.4
18/11:00pm 6.0 -3.3 3.0 81 1.3 WNW 41 54 22 29 1000.6 1000.7 2.4
18/10:30pm 5.7 -5.7 2.9 82 1.2 WNW 52 82 28 44 1000.3 1000.4 2.4
18/10:14pm 6.0 -6.4 2.8 80 1.3 WNW 57 76 31 41 1000.2 1000.3 2.0
18/10:03pm 5.6 -5.9 2.4 80 1.3 WNW 52 74 28 40 1000.3 1000.4 2.0
18/10:00pm 6.0 -4.2 3.3 83 1.1 W 46 65 25 35 1000.6 1000.7 2.0
18/09:57pm 6.0 -3.2 3.5 84 1.1 W 41 63 22 34 1000.6 1000.7 2.0
18/09:54pm 6.0 -3.2 3.5 84 1.1 W 41 54 22 29 1000.9 1001.0 2.0
18/09:47pm 6.1 -4.8 3.3 82 1.2 W 50 76 27 41 1000.8 1000.9 1.6
18/09:40pm 6.8 -2.9 2.9 76 1.6 WNW 43 76 23 41 1000.4 1000.5 1.0
18/09:37pm 7.3 -0.8 3.2 75 1.7 WNW 35 56 19 30 1000.5 1000.6 1.0
18/09:30pm 7.2 -1.0 2.9 74 1.8 WNW 35 50 19 27 1000.4 1000.5 1.0
18/09:17pm 6.7 -0.9 2.8 76 1.6 WNW 32 52 17 28 999.9 1000.0 1.0
18/09:00pm 6.5 -1.2 3.5 81 1.3 WNW 33 43 18 23 999.7 999.8 1.0
18/08:30pm 6.5 -2.2 4.0 84 1.1 WNW 39 65 21 35 999.5 999.5 1.0
18/08:19pm 7.4 -2.6 4.5 82 1.3 WNW 46 67 25 36 999.4 999.4 0.6
18/08:00pm 7.7 -3.2 3.6 75 1.8 WNW 50 67 27 36 998.2 998.2 0.4
18/07:40pm 7.5 -2.6 3.7 77 1.6 W 46 69 25 37 998.2 998.2 0.4
18/07:30pm 8.7 -1.2 4.7 76 1.8 W 46 54 25 29 998.1 998.1 0.2
18/07:02pm 9.0 2.3 3.8 70 2.3 WNW 28 52 15 28 997.3 997.3 0.2
18/07:00pm 9.1 2.5 4.3 72 2.1 NW 28 39 15 21 997.4 997.4 0.2
18/06:30pm 9.5 3.1 5.1 74 2.0 NW 28 35 15 19 997.5 997.5 0.2
18/06:00pm 10.4 2.8 5.6 72 2.2 WNW 35 48 19 26 997.1 997.1 0.2
18/05:30pm 10.4 1.7 4.1 65 2.8 NW 39 54 21 29 997.0 997.0 0.2
18/05:09pm 11.4 1.9 3.7 59 3.4 NW 43 61 23 33 996.8 996.8 0.2
18/05:00pm 11.8 3.1 4.3 60 3.4 NW 39 50 21 27 996.7 996.7 0.2
18/04:30pm 11.7 3.1 4.7 62 3.2 NW 39 57 21 31 997.1 997.1 0.2
18/04:23pm 11.4 3.9 4.4 62 3.2 NW 33 52 18 28 997.2 997.2 0.2
18/04:08pm 10.6 1.1 6.9 78 1.8 WNW 46 72 25 39 996.8 996.8 0.2
18/04:00pm 10.0 -1.9 5.4 73 2.1 WNW 57 78 31 42 996.8 996.8 0.2
18/03:38pm 11.2 0.2 6.9 75 2.0 W 54 72 29 39 997.0 997.0 0.0
18/03:30pm 11.7 2.0 7.4 75 2.1 WNW 48 72 26 39 996.5 996.5 0.0
18/03:28pm 11.8 2.4 7.1 73 2.3 WNW 46 70 25 38 996.5 996.5 0.0
18/03:02pm 16.1 9.2 6.3 52 4.8 WNW 32 52 17 28 996.3 996.3 0.0
18/03:00pm 16.5 10.2 7.2 54 4.7 WNW 30 46 16 25 996.4 996.4 0.0
18/02:53pm 15.6 9.1 8.1 61 3.8 WNW 32 50 17 27 996.3 996.3 0.0
18/02:30pm 15.2 7.5 5.4 52 4.7 NW 35 46 19 25 996.6 996.6 0.0
18/02:03pm 15.3 8.9 5.2 51 4.8 NW 28 46 15 25 996.9 996.9 0.0
18/02:00pm 15.3 8.1 5.0 50 4.9 NW 32 46 17 25 997.1 997.1 0.0
18/01:44pm 14.9 8.5 5.1 52 4.6 NW 28 46 15 25 997.3 997.3 0.0
18/01:30pm 14.9 8.1 4.9 51 4.7 NW 30 41 16 22 997.7 997.7 0.0
18/01:00pm 15.3 11.1 5.5 52 4.7 N 17 30 9 16 998.2 998.2 0.0
18/12:30pm 14.9 9.2 5.1 52 4.6 NNW 24 37 13 20 999.0 999.0 0.0
18/12:00pm 16.0 10.8 5.3 49 5.1 NNW 22 35 12 19 999.7 999.8 0.0
18/11:30am 14.6 7.6 4.0 49 4.9 NW 30 43 16 23 1001.0 1001.1 0.0
18/11:05am 15.9 7.9 5.5 50 5.0 NW 37 56 20 30 1001.1 1001.2 0.0
18/11:00am 15.1 5.7 4.5 49 5.0 NW 43 56 23 30 1001.1 1001.2 0.0
18/10:30am 14.4 6.5 4.1 50 4.7 NW 35 50 19 27 1001.4 1001.5 0.0
18/10:22am 14.1 7.5 4.4 52 4.5 NW 28 48 15 26 1001.6 1001.7 0.0
18/10:00am 14.2 8.1 4.8 53 4.4 NW 26 43 14 23 1002.1 1002.1 0.0
18/09:30am 12.7 8.3 4.7 58 3.7 NNW 17 28 9 15 1002.9 1002.9 0.0
18/09:00am 12.8 7.2 3.7 54 4.1 NNW 22 33 12 18 1003.5 1003.5 0.2
18/08:30am 12.3 7.3 4.8 60 3.4 NNW 20 28 11 15 1004.0 1004.0 0.2
18/08:00am 11.6 6.6 4.8 63 3.1 N 20 32 11 17 1004.3 1004.3 0.2
18/07:30am 10.0 5.9 4.4 68 2.5 NNW 15 24 8 13 1004.5 1004.5 0.2
18/07:00am 9.9 6.3 4.9 71 2.3 N 13 19 7 10 1004.9 1004.9 0.2
18/06:30am 9.9 5.9 4.7 70 2.3 N 15 20 8 11 1004.8 1004.8 0.2
18/06:00am 9.7 6.8 4.5 70 2.3 N 9 15 5 8 1005.0 1005.0 0.2
18/05:30am 9.7 6.0 4.5 70 2.3 N 13 17 7 9 1005.0 1005.0 0.2
18/05:00am 9.4 6.1 4.8 73 2.1 NNE 11 17 6 9 1005.1 1005.1 0.2
18/04:30am 9.0 5.0 4.8 75 1.9 NNE 15 22 8 12 1005.2 1005.2 0.2
18/04:00am 8.8 4.0 4.4 74 2.0 NNW 19 24 10 13 1005.9 1005.9 0.2
18/03:30am 8.4 4.6 4.0 74 1.9 N 13 20 7 11 1006.0 1006.0 0.2
18/03:00am 8.3 4.1 3.9 74 1.9 N 15 24 8 13 1006.4 1006.4 0.2
18/02:30am 8.6 3.6 3.6 71 2.2 NNW 19 24 10 13 1006.7 1006.7 0.2
18/02:00am 8.2 3.3 4.0 75 1.8 NNW 19 22 10 12 1007.3 1007.3 0.2
18/01:30am 8.1 4.2 5.2 82 1.3 NNW 15 17 8 9 1007.8 1007.8 0.2
18/01:00am 8.8 5.1 6.1 83 1.2 WNW 15 20 8 11 1008.0 1008.0 0.2
18/12:30am 8.8 4.9 7.1 89 0.8 N 17 19 9 10 1008.0 1008.0 0.2
18/12:00am 8.9 4.9 6.7 86 1.0 N 17 20 9 11 1007.9 1007.9 0.2
 
Date/Time
EDT
Temp
°C
App
Temp
°C
Dew
Point
°C
Rel
Hum
%
Delta-T
°C
Wind Press
QNH
hPa
Press
MSL
hPa
Rain since
9am
mm
Dir  Spd
km/h
Gust
km/h
Spd
kts
Gust
kts
17/11:30pm 9.0 4.6 6.4 84 1.2 NNW 19 20 10 11 1008.0 1008.0 0.2
17/11:00pm 9.3 6.2 7.3 87 0.9 N 13 17 7 9 1008.0 1008.0 0.2
17/10:30pm 9.1 5.2 6.9 86 1.0 N 17 20 9 11 1008.0 1008.0 0.2
17/10:00pm 9.0 5.7 6.6 85 1.1 N 13 17 7 9 1008.0 1008.0 0.2
17/09:30pm 9.0 5.3 6.4 84 1.2 N 15 17 8 9 1008.1 1008.1 0.2
17/09:00pm 8.8 5.1 6.1 83 1.2 N 15 17 8 9 1007.9 1007.9 0.2
17/08:30pm 8.9 5.8 5.6 80 1.5 N 11 13 6 7 1007.6 1007.6 0.2
17/08:00pm 10.4 7.1 6.4 76 1.9 NNE 13 17 7 9 1007.3 1007.3 0.2
17/07:30pm 10.7 7.4 6.5 75 2.0 NE 13 15 7 8 1007.1 1007.1 0.2
17/07:00pm 10.9 8.0 6.6 75 2.0 ENE 11 13 6 7 1006.9 1006.9 0.2
17/06:30pm 12.1 7.9 7.4 73 2.3 ESE 19 24 10 13 1006.5 1006.5 0.2
17/06:00pm 12.6 8.3 7.7 72 2.4 ESE 20 26 11 14 1006.2 1006.2 0.2
17/05:30pm 12.7 7.6 7.8 72 2.4 ESE 24 30 13 16 1006.0 1006.0 0.2
17/05:00pm 12.9 7.9 8.0 72 2.4 ESE 24 30 13 16 1005.9 1005.9 0.2
17/04:30pm 13.4 8.5 8.3 71 2.5 ESE 24 32 13 17 1005.7 1005.7 0.2
17/04:00pm 13.6 8.4 8.7 72 2.5 ESE 26 30 14 16 1005.7 1005.7 0.2
17/03:30pm 13.9 9.0 8.3 69 2.8 ESE 24 28 13 15 1005.8 1005.8 0.2
17/03:00pm 13.8 9.7 8.0 68 2.9 ESE 19 24 10 13 1006.2 1006.2 0.2
17/02:30pm 14.0 10.5 8.8 71 2.6 S 17 22 9 12 1006.6 1006.6 0.2
17/02:00pm 14.6 12.1 9.6 72 2.6 S 13 20 7 11 1006.6 1006.6 0.2
17/01:30pm 13.8 10.7 8.8 72 2.5 SE 15 19 8 10 1006.3 1006.3 0.2
17/01:00pm 13.6 10.2 9.1 74 2.3 SE 17 22 9 12 1006.5 1006.5 0.2
17/12:30pm 13.6 11.1 9.6 77 2.1 SSE 13 17 7 9 1006.5 1006.5 0.2
17/12:00pm 12.5 9.7 8.4 76 2.0 S 13 15 7 8 1006.7 1006.7 0.2
17/11:30am 11.8 9.5 7.5 75 2.1 SSW 9 13 5 7 1006.9 1006.9 0.2
17/11:00am 11.3 9.4 7.4 77 1.9 W 7 9 4 5 1007.0 1007.0 0.0
17/10:30am 10.1 8.1 7.0 81 1.5 WNW 7 11 4 6 1007.0 1007.0 0.0
17/10:00am 10.6 8.4 8.0 84 1.3 W 9 11 5 6 1006.9 1006.9 0.0
17/09:30am 10.0 7.7 7.6 85 1.2 WNW 9 20 5 11 1006.9 1006.9 0.0
17/09:00am 9.1 7.3 7.2 88 0.9 WNW 6 9 3 5 1007.0 1007.0 4.4
17/08:30am 8.8 6.1 7.4 91 0.7 N 11 15 6 8 1007.0 1007.0 4.4
17/08:00am 8.5 6.5 7.3 92 0.6 N 7 9 4 5 1007.0 1007.0 4.4
17/07:30am 7.3 4.0 6.2 93 0.5 N 13 17 7 9 1006.8 1006.8 4.4
17/07:00am 6.4 2.1 5.4 93 0.4 N 17 20 9 11 1006.4 1006.4 4.4
17/06:30am 5.8 1.8 4.8 93 0.4 N 15 17 8 9 1006.4 1006.4 4.4
17/06:00am 5.7 3.4 4.7 93 0.4 NNW 6 9 3 5 1006.1 1006.1 4.4
17/05:30am 5.9 1.9 4.9 93 0.4 N 15 19 8 10 1006.4 1006.4 4.4
17/05:00am 5.9 1.9 4.9 93 0.4 N 15 17 8 9 1006.4 1006.4 4.4
17/04:30am 5.8 1.4 4.8 93 0.4 N 17 19 9 10 1006.6 1006.6 4.4
17/04:00am 5.8 1.4 4.8 93 0.4 N 17 19 9 10 1006.7 1006.7 4.4
17/03:30am 5.8 2.2 4.8 93 0.4 NNW 13 15 7 8 1006.8 1006.8 4.4
17/03:00am 6.0 1.6 5.0 93 0.4 N 17 19 9 10 1007.2 1007.2 4.4
17/02:30am 6.5 2.2 5.3 92 0.5 N 17 20 9 11 1007.2 1007.2 4.4
17/02:00am 6.3 2.0 5.1 92 0.5 N 17 19 9 10 1007.4 1007.4 4.2
17/01:30am 6.5 2.9 5.1 91 0.6 N 13 17 7 9 1007.6 1007.6 4.2
17/01:00am 6.7 2.4 5.3 91 0.6 N 17 20 9 11 1007.6 1007.6 4.2
17/12:30am 6.7 2.8 5.3 91 0.6 N 15 17 8 9 1007.7 1007.7 4.2
17/12:00am 6.1 2.8 4.6 90 0.7 N 11 13 6 7 1008.1 1008.1 4.2
 
Date/Time
EDT
Temp
°C
App
Temp
°C
Dew
Point
°C
Rel
Hum
%
Delta-T
°C
Wind Press
QNH
hPa
Press
MSL
hPa
Rain since
9am
mm
Dir  Spd
km/h
Gust
km/h
Spd
kts
Gust
kts
16/11:30pm 6.5 3.2 4.8 89 0.7 NW 11 13 6 7 1008.2 1008.2 4.2
16/11:00pm 6.9 4.1 5.1 88 0.8 NW 9 13 5 7 1008.3 1008.3 4.2
16/10:30pm 7.2 4.0 5.3 88 0.8 WNW 11 15 6 8 1008.4 1008.4 4.2
16/10:00pm 7.6 4.2 5.7 88 0.9 W 13 17 7 9 1008.6 1008.6 4.2
16/09:30pm 7.4 4.6 5.0 85 1.1 WNW 9 15 5 8 1008.7 1008.7 4.2
16/09:00pm 7.8 5.9 4.9 82 1.3 S 4 9 2 5 1008.6 1008.6 4.0
16/08:30pm 7.9 6.8 5.2 83 1.2 CALM 0 0 0 0 1008.7 1008.7 4.0
16/08:00pm 7.9 6.1 5.5 85 1.1 SW 4 7 2 4 1008.7 1008.7 4.0
16/07:30pm 8.1 4.3 5.7 85 1.1 WSW 15 20 8 11 1008.7 1008.7 4.0
16/07:00pm 8.7 7.6 5.1 78 1.6 CALM 0 0 0 0 1009.0 1009.0 3.4
16/06:30pm 9.1 6.6 4.7 74 2.0 S 7 15 4 8 1008.9 1008.9 1.6
16/06:00pm 10.4 6.0 5.0 69 2.5 ESE 17 22 9 12 1008.3 1008.3 0.0
16/05:30pm 11.1 5.4 4.8 65 2.9 ESE 24 32 13 17 1007.7 1007.7 0.0
16/05:00pm 12.2 7.8 4.7 60 3.4 SE 17 30 9 16 1007.7 1007.7 0.0
16/04:30pm 12.5 7.9 5.4 62 3.3 ESE 19 24 10 13 1007.7 1007.7 0.0
16/04:00pm 13.1 7.6 5.8 61 3.5 ESE 24 30 13 16 1007.6 1007.6 0.0
16/03:30pm 12.8 6.8 5.2 60 3.5 ESE 26 32 14 17 1007.7 1007.7 0.0
16/03:00pm 12.8 8.2 5.5 61 3.4 S 19 26 10 14 1008.4 1008.4 0.0
16/02:30pm 13.2 8.8 4.9 57 3.8 S 17 24 9 13 1008.5 1008.5 0.0
16/02:00pm 12.4 7.6 4.9 60 3.5 ESE 19 28 10 15 1008.8 1008.8 0.0
16/01:30pm 14.6 10.4 5.9 56 4.2 SE 17 26 9 14 1008.7 1008.7 0.0
16/01:00pm 14.0 9.5 4.3 52 4.5 ESE 17 20 9 11 1008.8 1008.8 0.0
16/12:30pm 13.6 9.6 2.8 48 4.8 ESE 13 17 7 9 1009.3 1009.3 0.0
16/12:00pm 13.9 10.1 3.7 50 4.6 NNE 13 19 7 10 1009.7 1009.7 0.0
16/11:30am 14.5 10.7 3.9 49 4.9 NNE 13 19 7 10 1010.0 1010.0 0.0
16/11:00am 14.1 10.1 4.9 54 4.3 NNE 15 24 8 13 1010.2 1010.2 0.0
16/10:30am 14.0 10.8 4.9 54 4.2 NNW 11 17 6 9 1010.5 1010.5 0.0
16/10:00am 12.3 8.6 4.5 59 3.6 N 13 20 7 11 1010.6 1010.6 0.0
16/09:30am 12.2 8.7 5.4 63 3.2 N 13 17 7 9 1010.9 1010.9 0.0
16/09:00am 9.7 5.1 5.7 76 1.8 NNE 19 24 10 13 1011.1 1011.1 0.0
16/08:30am 9.8 5.2 5.8 76 1.8 NNE 19 24 10 13 1011.2 1011.2 0.0
16/08:00am 9.9 6.3 6.8 81 1.5 N 15 20 8 11 1011.3 1011.3 0.0
16/07:30am 8.0 3.7 5.3 83 1.2 N 17 24 9 13 1011.3 1011.3 0.0
16/07:00am 7.3 2.9 4.6 83 1.2 N 17 19 9 10 1011.2 1011.2 0.0

Other formats

Comma delimited format used in spreadsheet applications
http://www.bom.gov.au/fwo/IDT60801/IDT60801.95967.axf

JavaScript Object Notation format (JSON) in row-major order
http://www.bom.gov.au/fwo/IDT60801/IDT60801.95967.json

Data quality

Most of these data are generated automatically and are frequently updated. Quality checks on data are not normally performed. It is possible for incorrect values to appear. Refer to information at About Latest Weather Observations and please check the disclaimer before using these data.